Time;durP1;ratioP1;P1;durP2;ratioP2;P2;SDS_P1;SDS_P2;PMS_P1;PMS_P2;Temp;Humidity;BMP_temperature;BMP_pressure;BME280_temperature;BME280_humidity;BME280_pressure;Samples;Min_cycle;Max_cycle;Signal;HPM_P1;HPM_P2
2022/03/10 00:00:10;;;;;;;24.00;13.93;;;;;;;;;;4853563;29;20046;-81
2022/03/10 00:02:36;;;;;;;23.83;13.93;;;;;;;;;;4840814;29;20112;-86
2022/03/10 00:05:03;;;;;;;23.15;14.85;;;;;;;;;;4841636;29;20061;-78
2022/03/10 00:07:29;;;;;;;27.95;14.85;;;;;;;;;;4856005;29;20132;-79
2022/03/10 00:09:55;;;;;;;22.52;14.43;;;;;;;;;;4839474;29;20545;-78
2022/03/10 00:12:21;;;;;;;25.45;14.93;;;;;;;;;;4855244;29;20057;-83
2022/03/10 00:14:47;;;;;;;24.50;14.77;;;;;;;;;;4839986;29;20057;-82
2022/03/10 00:17:13;;;;;;;22.75;14.02;;;;;;;;;;4828102;29;20171;-86
2022/03/10 00:19:39;;;;;;;22.63;15.18;;;;;;;;;;4857696;29;20061;-83
2022/03/10 00:22:06;;;;;;;20.65;13.25;;;;;;;;;;4828279;29;20136;-84
2022/03/10 00:24:32;;;;;;;20.35;13.20;;;;;;;;;;4840588;29;20053;-86
2022/03/10 00:26:58;;;;;;;26.00;14.48;;;;;;;;;;4828477;29;20053;-86
2022/03/10 00:29:25;;;;;;;22.30;13.75;;;;;;;;;;4841566;29;20100;-83
2022/03/10 00:31:51;;;;;;;22.40;14.02;;;;;;;;;;4855857;29;20338;-85
2022/03/10 00:34:17;;;;;;;23.70;14.40;;;;;;;;;;4830727;29;20120;-85
2022/03/10 00:36:43;;;;;;;22.90;14.60;;;;;;;;;;4853182;29;20083;-81
2022/03/10 00:39:09;;;;;;;22.42;13.60;;;;;;;;;;4828835;29;20045;-84
2022/03/10 00:41:35;;;;;;;26.13;13.85;;;;;;;;;;4842907;29;20056;-85
2022/03/10 00:44:01;;;;;;;22.70;13.27;;;;;;;;;;4857059;29;20053;-79
2022/03/10 00:46:27;;;;;;;19.02;13.13;;;;;;;;;;4856438;29;20045;-83
2022/03/10 00:48:53;;;;;;;22.38;14.65;;;;;;;;;;4842986;29;20049;-81
2022/03/10 00:51:19;;;;;;;18.95;13.35;;;;;;;;;;4841057;29;20392;-83
2022/03/10 00:53:45;;;;;;;21.05;13.85;;;;;;;;;;4841986;29;20052;-84
2022/03/10 00:56:11;;;;;;;23.10;13.55;;;;;;;;;;4854771;29;20887;-83
2022/03/10 00:58:37;;;;;;;21.17;12.73;;;;;;;;;;4855533;29;20045;-82
2022/03/10 01:01:03;;;;;;;21.42;13.35;;;;;;;;;;4855746;29;20131;-80
2022/03/10 01:03:29;;;;;;;21.67;14.02;;;;;;;;;;4856542;29;20041;-78
2022/03/10 01:05:55;;;;;;;22.08;14.43;;;;;;;;;;4840200;29;20053;-78
2022/03/10 01:08:21;;;;;;;22.38;13.13;;;;;;;;;;4854435;29;20052;-77
2022/03/10 01:10:48;;;;;;;22.67;12.95;;;;;;;;;;4855753;29;20041;-76
2022/03/10 01:13:15;;;;;;;20.10;13.20;;;;;;;;;;4873182;29;20405;-78
2022/03/10 01:15:41;;;;;;;20.20;13.05;;;;;;;;;;4873299;29;20065;-78
2022/03/10 01:18:08;;;;;;;30.58;13.90;;;;;;;;;;4853836;29;20124;-77
2022/03/10 01:20:34;;;;;;;20.60;13.68;;;;;;;;;;4855000;29;20048;-77
2022/03/10 01:23:00;;;;;;;21.25;13.75;;;;;;;;;;4854348;29;20085;-78
2022/03/10 01:25:27;;;;;;;19.60;13.30;;;;;;;;;;4857565;29;20414;-78
2022/03/10 01:27:53;;;;;;;19.95;12.63;;;;;;;;;;4856070;29;20485;-78
2022/03/10 01:30:19;;;;;;;21.30;12.73;;;;;;;;;;4840176;29;20136;-77
2022/03/10 01:32:45;;;;;;;19.70;12.38;;;;;;;;;;4851459;29;20048;-77
2022/03/10 01:35:12;;;;;;;22.30;13.77;;;;;;;;;;4837685;29;20056;-77
2022/03/10 01:37:38;;;;;;;22.55;13.48;;;;;;;;;;4857737;29;20059;-78
2022/03/10 01:40:05;;;;;;;20.13;13.35;;;;;;;;;;4840941;29;20060;-76
2022/03/10 01:42:32;;;;;;;19.27;12.23;;;;;;;;;;4851383;29;20052;-78
2022/03/10 01:44:58;;;;;;;21.40;12.65;;;;;;;;;;4854210;29;20083;-78
2022/03/10 01:47:24;;;;;;;19.58;12.75;;;;;;;;;;4858088;29;20109;-77
2022/03/10 01:49:50;;;;;;;20.73;12.63;;;;;;;;;;4841781;29;20060;-77
2022/03/10 01:52:16;;;;;;;19.92;12.65;;;;;;;;;;4854965;29;20041;-78
2022/03/10 01:54:42;;;;;;;20.20;12.32;;;;;;;;;;4871437;29;20049;-79
2022/03/10 01:57:10;;;;;;;20.48;12.23;;;;;;;;;;4857072;29;20052;-78
2022/03/10 01:59:37;;;;;;;20.75;11.60;;;;;;;;;;4855689;29;20052;-78
2022/03/10 02:02:03;;;;;;;23.02;12.50;;;;;;;;;;4870458;29;20080;-77
2022/03/10 02:04:29;;;;;;;21.23;12.90;;;;;;;;;;4854183;29;20049;-77
2022/03/10 02:06:56;;;;;;;20.92;12.57;;;;;;;;;;4847849;29;20541;-78
2022/03/10 02:12:08;;;;;;;22.13;12.43;;;;;;;;;;4853238;29;20406;-77
2022/03/10 02:17:22;;;;;;;24.83;13.00;;;;;;;;;;4873334;29;20067;-77
2022/03/10 02:19:51;;;;;;;18.48;12.27;;;;;;;;;;4856768;29;20052;-77
2022/03/10 02:22:17;;;;;;;18.55;12.70;;;;;;;;;;4854624;29;20207;-78
2022/03/10 02:24:44;;;;;;;24.13;12.80;;;;;;;;;;4853894;29;20057;-77
2022/03/10 02:27:23;;;;;;;22.50;13.10;;;;;;;;;;4840287;29;20053;-78
2022/03/10 02:29:51;;;;;;;18.58;12.32;;;;;;;;;;4855622;29;20058;-76
2022/03/10 02:32:17;;;;;;;21.70;13.55;;;;;;;;;;4853942;29;20136;-78
2022/03/10 02:34:43;;;;;;;22.85;13.00;;;;;;;;;;4839411;29;20117;-78
2022/03/10 02:37:10;;;;;;;18.05;12.38;;;;;;;;;;4852120;29;20049;-77
2022/03/10 02:39:36;;;;;;;21.70;13.00;;;;;;;;;;4855980;29;20057;-77
2022/03/10 02:42:03;;;;;;;24.60;13.05;;;;;;;;;;4853790;29;20049;-78
2022/03/10 02:44:29;;;;;;;18.88;12.13;;;;;;;;;;4854196;29;20088;-79
2022/03/10 02:46:55;;;;;;;19.00;12.88;;;;;;;;;;4853848;29;20052;-76
2022/03/10 02:49:22;;;;;;;20.23;12.45;;;;;;;;;;4854780;29;20088;-77
2022/03/10 02:51:48;;;;;;;19.00;12.25;;;;;;;;;;4860622;29;20460;-78
2022/03/10 02:54:14;;;;;;;20.02;12.27;;;;;;;;;;4874950;29;20520;-79
2022/03/10 02:56:40;;;;;;;19.70;12.93;;;;;;;;;;4876271;29;20072;-78
2022/03/10 02:59:06;;;;;;;19.13;11.80;;;;;;;;;;4856642;29;20045;-77
2022/03/10 03:01:32;;;;;;;19.17;12.55;;;;;;;;;;4857660;29;20397;-78
2022/03/10 03:03:58;;;;;;;19.35;12.30;;;;;;;;;;4875837;29;20131;-79
2022/03/10 03:06:24;;;;;;;21.45;12.88;;;;;;;;;;4860566;29;20489;-78
2022/03/10 03:08:50;;;;;;;20.60;13.63;;;;;;;;;;4878122;29;20049;-77
2022/03/10 03:11:16;;;;;;;22.02;13.73;;;;;;;;;;4860455;29;20057;-77
2022/03/10 03:13:42;;;;;;;25.50;12.57;;;;;;;;;;4847038;29;20072;-78
2022/03/10 03:16:09;;;;;;;22.38;13.80;;;;;;;;;;4861301;29;20049;-78
2022/03/10 03:18:35;;;;;;;21.17;12.73;;;;;;;;;;4846149;29;20108;-77
2022/03/10 03:21:01;;;;;;;23.33;13.02;;;;;;;;;;4860439;29;20516;-77
2022/03/10 03:23:27;;;;;;;18.50;12.70;;;;;;;;;;4841769;29;20049;-78
2022/03/10 03:25:53;;;;;;;17.40;12.18;;;;;;;;;;4856274;29;20511;-78
2022/03/10 03:28:23;;;;;;;19.17;12.30;;;;;;;;;;4856196;29;20037;-77
2022/03/10 03:30:49;;;;;;;21.38;13.38;;;;;;;;;;4859641;29;20413;-78
2022/03/10 03:33:16;;;;;;;19.05;11.40;;;;;;;;;;4843868;29;20430;-78
2022/03/10 03:35:42;;;;;;;21.25;13.13;;;;;;;;;;4859631;29;20048;-78
2022/03/10 03:38:08;;;;;;;20.58;13.68;;;;;;;;;;4856126;29;20397;-78
2022/03/10 03:40:35;;;;;;;19.70;12.60;;;;;;;;;;4873681;29;20057;-77
2022/03/10 03:43:01;;;;;;;19.77;12.30;;;;;;;;;;4857917;29;20052;-77
2022/03/10 03:45:27;;;;;;;19.23;12.98;;;;;;;;;;4858110;29;20052;-78
2022/03/10 03:47:54;;;;;;;23.58;13.18;;;;;;;;;;4860045;29;20048;-78
2022/03/10 03:50:20;;;;;;;25.75;13.07;;;;;;;;;;4873579;29;20048;-78
2022/03/10 03:52:46;;;;;;;19.38;11.93;;;;;;;;;;4875006;29;20140;-77
2022/03/10 03:55:13;;;;;;;21.13;12.85;;;;;;;;;;4857090;29;20354;-78
2022/03/10 03:57:39;;;;;;;21.77;12.25;;;;;;;;;;4842589;29;20049;-79
2022/03/10 04:00:06;;;;;;;24.00;13.10;;;;;;;;;;4855113;29;20188;-78
2022/03/10 04:02:32;;;;;;;18.65;12.50;;;;;;;;;;4876093;29;20049;-78
2022/03/10 04:04:58;;;;;;;21.20;13.32;;;;;;;;;;4857103;29;20049;-77
2022/03/10 04:07:24;;;;;;;20.27;12.45;;;;;;;;;;4872519;29;20124;-78
2022/03/10 04:09:50;;;;;;;22.85;13.00;;;;;;;;;;4843903;29;20093;-78
2022/03/10 04:12:16;;;;;;;22.05;13.60;;;;;;;;;;4874907;29;20346;-78
2022/03/10 04:14:42;;;;;;;18.67;12.07;;;;;;;;;;4839752;29;20533;-78
2022/03/10 04:17:09;;;;;;;20.88;13.15;;;;;;;;;;4840986;29;20639;-77
2022/03/10 04:19:35;;;;;;;21.00;12.32;;;;;;;;;;4855941;29;20492;-77
2022/03/10 04:22:01;;;;;;;19.58;12.43;;;;;;;;;;4838819;29;20072;-77
2022/03/10 04:24:27;;;;;;;22.70;13.13;;;;;;;;;;4858273;29;20045;-78
2022/03/10 04:26:53;;;;;;;21.40;13.13;;;;;;;;;;4858929;29;20048;-78
2022/03/10 04:29:19;;;;;;;21.63;12.63;;;;;;;;;;4843324;29;20132;-78
2022/03/10 04:31:45;;;;;;;22.50;12.98;;;;;;;;;;4855700;29;20067;-77
2022/03/10 04:34:11;;;;;;;23.13;12.10;;;;;;;;;;4838802;29;20431;-78
2022/03/10 04:36:37;;;;;;;24.27;13.90;;;;;;;;;;4857952;29;20063;-78
2022/03/10 04:39:04;;;;;;;21.23;12.57;;;;;;;;;;4855994;29;20049;-78
2022/03/10 04:41:30;;;;;;;23.88;12.85;;;;;;;;;;4857778;29;20053;-79
2022/03/10 04:43:56;;;;;;;23.92;13.88;;;;;;;;;;4855651;29;20377;-78
2022/03/10 04:46:23;;;;;;;20.85;13.25;;;;;;;;;;4857229;29;20373;-77
2022/03/10 04:48:49;;;;;;;25.50;14.32;;;;;;;;;;4857675;29;20139;-77
2022/03/10 04:51:15;;;;;;;21.30;13.20;;;;;;;;;;4857084;29;20100;-78
2022/03/10 04:53:41;;;;;;;23.25;13.30;;;;;;;;;;4856162;29;20053;-79
2022/03/10 04:56:07;;;;;;;23.20;13.57;;;;;;;;;;4855453;29;20098;-80
2022/03/10 04:58:34;;;;;;;20.10;13.43;;;;;;;;;;4855317;29;20505;-78
2022/03/10 05:01:00;;;;;;;22.45;13.27;;;;;;;;;;4872825;29;20120;-78
2022/03/10 05:03:26;;;;;;;22.35;14.25;;;;;;;;;;4874543;29;20048;-78
2022/03/10 05:05:52;;;;;;;22.38;12.98;;;;;;;;;;4857681;29;20144;-78
2022/03/10 05:08:18;;;;;;;19.30;12.25;;;;;;;;;;4853897;29;20105;-77
2022/03/10 05:10:44;;;;;;;26.77;12.65;;;;;;;;;;4871638;29;20041;-78
2022/03/10 05:13:10;;;;;;;22.27;13.57;;;;;;;;;;4857512;29;20041;-78
2022/03/10 05:15:36;;;;;;;20.98;12.50;;;;;;;;;;4826944;29;20053;-78
2022/03/10 05:18:03;;;;;;;18.60;12.18;;;;;;;;;;4855814;29;20052;-78
2022/03/10 05:20:30;;;;;;;21.10;12.70;;;;;;;;;;4855176;29;20046;-78
2022/03/10 05:22:57;;;;;;;20.90;12.43;;;;;;;;;;4854162;29;20044;-79
2022/03/10 05:25:25;;;;;;;21.50;13.40;;;;;;;;;;4852516;29;20056;-78
2022/03/10 05:27:52;;;;;;;22.15;13.90;;;;;;;;;;4857469;29;20512;-77
2022/03/10 05:30:19;;;;;;;18.98;12.43;;;;;;;;;;4854921;29;20420;-77
2022/03/10 05:32:46;;;;;;;21.15;13.73;;;;;;;;;;4856042;29;20045;-77
2022/03/10 05:35:14;;;;;;;22.35;13.15;;;;;;;;;;4872470;29;20049;-78
2022/03/10 05:37:40;;;;;;;22.42;12.25;;;;;;;;;;4852341;29;20101;-78
2022/03/10 05:40:08;;;;;;;21.17;11.43;;;;;;;;;;4857269;29;20045;-77
2022/03/10 05:42:34;;;;;;;18.30;11.90;;;;;;;;;;4872847;29;20055;-78
2022/03/10 05:45:00;;;;;;;19.77;12.15;;;;;;;;;;4855148;29;20751;-78
2022/03/10 05:47:26;;;;;;;25.25;12.98;;;;;;;;;;4873672;29;20061;-77
2022/03/10 05:49:52;;;;;;;21.38;11.68;;;;;;;;;;4859934;29;20045;-77
2022/03/10 05:52:19;;;;;;;21.92;12.60;;;;;;;;;;4825784;29;20085;-77
2022/03/10 05:54:45;;;;;;;19.88;12.05;;;;;;;;;;4855949;29;20101;-81
2022/03/10 05:57:11;;;;;;;24.13;12.27;;;;;;;;;;4871077;29;20049;-79
2022/03/10 05:59:37;;;;;;;20.95;12.23;;;;;;;;;;4857012;29;20052;-79
2022/03/10 06:02:03;;;;;;;22.45;12.05;;;;;;;;;;4839432;29;20112;-80
2022/03/10 06:04:29;;;;;;;24.88;12.57;;;;;;;;;;4854524;29;20049;-81
2022/03/10 06:06:55;;;;;;;20.50;12.23;;;;;;;;;;4854669;29;20068;-80
2022/03/10 06:09:21;;;;;;;20.80;11.82;;;;;;;;;;4854758;29;20067;-77
2022/03/10 06:11:47;;;;;;;18.70;12.05;;;;;;;;;;4854918;29;20041;-82
2022/03/10 06:14:13;;;;;;;20.95;12.38;;;;;;;;;;4843304;29;20140;-77
2022/03/10 06:16:40;;;;;;;19.60;11.27;;;;;;;;;;4830500;29;20092;-81
2022/03/10 06:19:08;;;;;;;19.38;11.25;;;;;;;;;;4842310;29;20088;-80
2022/03/10 06:21:34;;;;;;;18.77;11.85;;;;;;;;;;4841756;29;20057;-79
2022/03/10 06:24:00;;;;;;;20.23;12.70;;;;;;;;;;4840228;29;20053;-77
2022/03/10 06:26:27;;;;;;;21.40;12.82;;;;;;;;;;4848180;29;21301;-79
2022/03/10 06:28:53;;;;;;;18.70;11.82;;;;;;;;;;4842239;29;20657;-76
2022/03/10 06:31:19;;;;;;;21.50;12.95;;;;;;;;;;4850865;29;20053;-79
2022/03/10 06:33:45;;;;;;;19.85;12.10;;;;;;;;;;4840919;29;20463;-79
2022/03/10 06:36:12;;;;;;;21.40;12.15;;;;;;;;;;4833090;29;20057;-79
2022/03/10 06:38:39;;;;;;;19.73;11.95;;;;;;;;;;4840525;29;20072;-84
2022/03/10 06:41:05;;;;;;;21.13;11.93;;;;;;;;;;4852162;29;20728;-80
2022/03/10 06:43:31;;;;;;;19.95;12.02;;;;;;;;;;4857604;29;20052;-81
2022/03/10 06:45:57;;;;;;;20.50;11.85;;;;;;;;;;4858210;29;20401;-80
2022/03/10 06:48:23;;;;;;;21.98;12.15;;;;;;;;;;4857973;29;20215;-80
2022/03/10 06:50:49;;;;;;;20.33;12.52;;;;;;;;;;4840707;29;20183;-79
2022/03/10 06:53:15;;;;;;;19.77;11.93;;;;;;;;;;4856525;29;20060;-82
2022/03/10 06:55:42;;;;;;;17.55;11.70;;;;;;;;;;4858067;29;20044;-82
2022/03/10 06:58:08;;;;;;;21.17;12.18;;;;;;;;;;4858004;29;20049;-81
2022/03/10 07:00:34;;;;;;;21.88;12.55;;;;;;;;;;4857762;29;20149;-81
2022/03/10 07:03:00;;;;;;;20.75;12.38;;;;;;;;;;4854960;29;20045;-81
2022/03/10 07:05:26;;;;;;;18.98;12.30;;;;;;;;;;4838831;29;20052;-80
2022/03/10 07:07:52;;;;;;;18.85;12.65;;;;;;;;;;4824465;29;20049;-81
2022/03/10 07:10:19;;;;;;;22.70;12.48;;;;;;;;;;4825892;29;20041;-80
2022/03/10 07:12:45;;;;;;;19.65;12.98;;;;;;;;;;4856440;29;20132;-80
2022/03/10 07:15:12;;;;;;;18.42;12.57;;;;;;;;;;4855077;29;20053;-80
2022/03/10 07:17:41;;;;;;;18.58;11.85;;;;;;;;;;4839801;29;20096;-80
2022/03/10 07:20:08;;;;;;;18.58;12.25;;;;;;;;;;4856064;29;20056;-80
2022/03/10 07:22:35;;;;;;;19.35;12.23;;;;;;;;;;4853930;29;20159;-80
2022/03/10 07:25:01;;;;;;;22.40;12.85;;;;;;;;;;4854413;29;20073;-80
2022/03/10 07:27:27;;;;;;;18.75;12.82;;;;;;;;;;4854011;29;20500;-81
2022/03/10 07:29:54;;;;;;;25.40;13.68;;;;;;;;;;4854088;29;20060;-80
2022/03/10 07:32:20;;;;;;;20.52;12.77;;;;;;;;;;4851274;29;20057;-80
2022/03/10 07:34:47;;;;;;;;;;;;;;;;;;4842800;29;20045;-80
2022/03/10 07:37:13;;;;;;;;;;;;;;;;;;4843602;29;19939;-78
2022/03/10 07:39:39;;;;;;;26.35;12.98;;;;;;;;;;4837970;29;20440;-80
2022/03/10 07:42:06;;;;;;;18.02;12.43;;;;;;;;;;4860862;29;20404;-79
2022/03/10 07:44:32;;;;;;;;;;;;;;;;;;4875452;29;20053;-81
2022/03/10 07:46:58;;;;;;;;;;;;;;;;;;4859768;29;19932;-81
2022/03/10 07:49:24;;;;;;;;;;;;;;;;;;4855478;29;19935;-80
2022/03/10 07:51:50;;;;;;;;;;;;;;;;;;4855079;29;20035;-79
2022/03/10 07:54:15;;;;;;;;;;;;;;;;;;4869058;29;19924;-81
2022/03/10 07:56:41;;;;;;;;;;;;;;;;;;4870192;29;19931;-80
2022/03/10 07:59:07;;;;;;;;;;;;;;;;;;4856097;29;19923;-80
2022/03/10 08:01:33;;;;;;;;;;;;;;;;;;4847176;29;19931;-80
2022/03/10 08:03:59;;;;;;;;;;;;;;;;;;4847041;29;20382;-79
2022/03/10 08:06:27;;;;;;;;;;;;;;;;;;4846467;29;20751;-80
2022/03/10 08:08:53;;;;;;;;;;;;;;;;;;4863131;29;19979;-77
2022/03/10 08:11:19;;;;;;;17.58;12.93;;;;;;;;;;4844121;29;19936;-77
2022/03/10 08:13:45;;;;;;;21.95;13.55;;;;;;;;;;4814797;29;20099;-81
2022/03/10 08:16:11;;;;;;;;;;;;;;;;;;4830173;29;20064;-81
2022/03/10 08:18:38;;;;;;;;;;;;;;;;;;4851040;29;19940;-79
2022/03/10 08:21:04;;;;;;;19.08;13.07;;;;;;;;;;4873809;29;19923;-79
2022/03/10 08:23:31;;;;;;;17.63;13.15;;;;;;;;;;4870804;29;20907;-83
2022/03/10 08:25:57;;;;;;;17.67;13.93;;;;;;;;;;4857061;29;20528;-80
2022/03/10 08:28:26;;;;;;;19.60;14.02;;;;;;;;;;4857873;29;20476;-76
2022/03/10 08:30:52;;;;;;;16.20;13.60;;;;;;;;;;4857728;29;20432;-79
2022/03/10 08:33:18;;;;;;;17.75;13.93;;;;;;;;;;4855898;29;20455;-79
2022/03/10 08:35:44;;;;;;;17.77;14.00;;;;;;;;;;4874752;29;20440;-76
2022/03/10 08:38:11;;;;;;;16.50;14.02;;;;;;;;;;4827704;29;20853;-79
2022/03/10 08:40:37;;;;;;;19.20;13.95;;;;;;;;;;4842157;29;20572;-79
2022/03/10 08:43:05;;;;;;;18.10;13.80;;;;;;;;;;4874965;29;20445;-80
2022/03/10 08:45:31;;;;;;;17.33;13.98;;;;;;;;;;4856773;29;20567;-79
2022/03/10 08:47:57;;;;;;;18.17;13.48;;;;;;;;;;4857272;29;20519;-81
2022/03/10 08:50:23;;;;;;;16.30;13.35;;;;;;;;;;4855988;29;20448;-77
2022/03/10 08:52:49;;;;;;;16.67;13.30;;;;;;;;;;4874273;29;20495;-79
2022/03/10 08:55:16;;;;;;;15.48;13.63;;;;;;;;;;4857700;29;20591;-80
2022/03/10 08:57:42;;;;;;;15.88;13.57;;;;;;;;;;4858199;29;20448;-80
2022/03/10 09:00:09;;;;;;;16.07;13.50;;;;;;;;;;4873600;29;20448;-80
2022/03/10 09:02:35;;;;;;;17.63;14.18;;;;;;;;;;4873732;29;20487;-78
2022/03/10 09:05:01;;;;;;;16.83;13.50;;;;;;;;;;4856522;29;20508;-80
2022/03/10 09:07:27;;;;;;;18.40;13.75;;;;;;;;;;4856122;29;20888;-79
2022/03/10 09:09:54;;;;;;;14.75;13.10;;;;;;;;;;4855821;29;20552;-79
2022/03/10 09:12:20;;;;;;;17.33;14.27;;;;;;;;;;4858152;29;20444;-79
2022/03/10 09:14:46;;;;;;;18.50;14.15;;;;;;;;;;4855249;29;20615;-79
2022/03/10 09:17:13;;;;;;;16.30;13.98;;;;;;;;;;4871639;29;20437;-79
2022/03/10 09:19:39;;;;;;;16.08;13.80;;;;;;;;;;4843226;29;20464;-79
2022/03/10 09:22:05;;;;;;;15.95;14.10;;;;;;;;;;4842069;29;20492;-79
2022/03/10 09:24:32;;;;;;;18.42;14.55;;;;;;;;;;4855703;29;20440;-80
2022/03/10 09:26:58;;;;;;;17.02;14.25;;;;;;;;;;4873448;29;20849;-80
2022/03/10 09:29:24;;;;;;;18.10;14.25;;;;;;;;;;4870862;29;20503;-79
2022/03/10 09:31:50;;;;;;;17.98;14.52;;;;;;;;;;4872790;29;20443;-81
2022/03/10 09:34:16;;;;;;;16.83;14.98;;;;;;;;;;4834375;29;20502;-82
2022/03/10 09:36:42;;;;;;;20.38;14.30;;;;;;;;;;4849343;29;20436;-81
2022/03/10 09:39:09;;;;;;;16.15;14.23;;;;;;;;;;4864951;29;20461;-79
2022/03/10 09:41:37;;;;;;;19.47;14.90;;;;;;;;;;4847182;29;20436;-81
2022/03/10 09:44:10;;;;;;;19.38;14.55;;;;;;;;;;4850988;29;20437;-81
2022/03/10 09:46:36;;;;;;;16.60;13.07;;;;;;;;;;4834623;29;20053;-80
2022/03/10 09:49:02;;;;;;;18.80;15.35;;;;;;;;;;4867714;29;20519;-83
2022/03/10 09:51:28;;;;;;;16.58;14.38;;;;;;;;;;4855270;29;20428;-78
2022/03/10 09:53:54;;;;;;;20.08;14.15;;;;;;;;;;4854093;29;20051;-82
2022/03/10 09:56:21;;;;;;;19.73;14.65;;;;;;;;;;4857096;29;20072;-85
2022/03/10 09:58:47;;;;;;;20.35;14.10;;;;;;;;;;4858559;29;20057;-82
2022/03/10 10:01:13;;;;;;;17.98;14.43;;;;;;;;;;4860884;29;20126;-87
2022/03/10 10:03:39;;;;;;;19.77;14.60;;;;;;;;;;4858712;29;20120;-87
2022/03/10 10:06:05;;;;;;;19.08;13.90;;;;;;;;;;4845592;29;20365;-85
2022/03/10 10:08:34;;;;;;;22.77;14.82;;;;;;;;;;4857753;29;20121;-84
2022/03/10 10:11:00;;;;;;;20.63;13.80;;;;;;;;;;4843454;29;20060;-89
2022/03/10 10:13:30;;;;;;;19.27;13.90;;;;;;;;;;4860320;29;20056;-87
2022/03/10 10:15:56;;;;;;;21.45;14.82;;;;;;;;;;4858989;29;20064;-88
2022/03/10 10:18:22;;;;;;;18.42;13.60;;;;;;;;;;4860042;29;20471;-90
2022/03/10 10:20:50;;;;;;;22.75;14.35;;;;;;;;;;4844983;29;20526;-91
2022/03/10 10:23:20;;;;;;;21.63;15.13;;;;;;;;;;4860866;29;20100;-89
2022/03/10 10:25:50;;;;;;;22.75;14.45;;;;;;;;;;4844438;29;20055;-88
2022/03/10 10:28:36;;;;;;;25.73;15.20;;;;;;;;;;4845339;29;20057;-87
2022/03/10 10:31:02;;;;;;;21.33;14.57;;;;;;;;;;4857982;29;20060;-85
2022/03/10 10:33:29;;;;;;;21.25;14.43;;;;;;;;;;4859801;29;20137;-85
2022/03/10 10:36:14;;;;;;;23.13;15.70;;;;;;;;;;4857753;29;20045;-83
2022/03/10 10:38:41;;;;;;;19.67;14.63;;;;;;;;;;4839376;29;20516;-84
2022/03/10 10:41:20;;;;;;;21.23;15.25;;;;;;;;;;4858564;29;20047;-83
2022/03/10 10:43:51;;;;;;;20.90;15.02;;;;;;;;;;4858344;29;20132;-81
2022/03/10 10:46:22;;;;;;;19.58;13.57;;;;;;;;;;4857645;29;20041;-83
2022/03/10 10:48:48;;;;;;;23.40;15.43;;;;;;;;;;4841874;29;20048;-86
2022/03/10 10:51:15;;;;;;;21.02;14.68;;;;;;;;;;4843283;29;20073;-82
2022/03/10 10:53:41;;;;;;;23.50;15.00;;;;;;;;;;4857419;29;20060;-83
2022/03/10 10:56:07;;;;;;;23.02;15.13;;;;;;;;;;4827974;29;20055;-82
2022/03/10 10:58:33;;;;;;;21.02;15.43;;;;;;;;;;4858959;29;20130;-82
2022/03/10 11:00:59;;;;;;;23.08;15.07;;;;;;;;;;4857379;29;20048;-81
2022/03/10 11:03:26;;;;;;;22.60;16.25;;;;;;;;;;4841164;29;20493;-81
2022/03/10 11:05:53;;;;;;;22.88;15.63;;;;;;;;;;4856769;29;20499;-83
2022/03/10 11:08:20;;;;;;;24.30;15.82;;;;;;;;;;4858282;29;20077;-83
2022/03/10 11:10:46;;;;;;;24.40;16.65;;;;;;;;;;4845173;29;20056;-80
2022/03/10 11:13:12;;;;;;;25.05;16.52;;;;;;;;;;4845462;29;20041;-82
2022/03/10 11:15:39;;;;;;;21.67;16.30;;;;;;;;;;4860075;29;20488;-80
2022/03/10 11:18:07;;;;;;;23.33;15.20;;;;;;;;;;4861314;29;20099;-82
2022/03/10 11:20:34;;;;;;;21.75;16.63;;;;;;;;;;4862175;29;20056;-80
2022/03/10 11:23:12;;;;;;;23.35;16.20;;;;;;;;;;4830950;29;20073;-81
2022/03/10 11:25:48;;;;;;;25.88;16.88;;;;;;;;;;4842901;29;20073;-80
2022/03/10 11:28:28;;;;;;;24.13;17.20;;;;;;;;;;4859015;29;20055;-81
2022/03/10 11:30:55;;;;;;;25.42;17.33;;;;;;;;;;4845796;29;20113;-83
2022/03/10 11:33:21;;;;;;;23.17;16.60;;;;;;;;;;4843470;29;20049;-83
2022/03/10 11:35:48;;;;;;;24.23;16.73;;;;;;;;;;4861267;29;20066;-81
2022/03/10 11:38:15;;;;;;;22.17;16.13;;;;;;;;;;4845807;29;20493;-82
2022/03/10 11:40:46;;;;;;;26.02;17.80;;;;;;;;;;4861256;29;20255;-82
2022/03/10 11:43:17;;;;;;;24.08;17.02;;;;;;;;;;4860885;29;20049;-81
2022/03/10 11:45:43;;;;;;;24.05;16.70;;;;;;;;;;4862100;29;20053;-82
2022/03/10 11:48:18;;;;;;;24.88;16.60;;;;;;;;;;4860760;29;20048;-82
2022/03/10 11:50:44;;;;;;;25.40;17.33;;;;;;;;;;4859558;29;20097;-80
2022/03/10 11:53:13;;;;;;;25.40;15.88;;;;;;;;;;4845751;29;20048;-82
2022/03/10 11:55:53;;;;;;;23.42;16.05;;;;;;;;;;4845569;29;20512;-82
2022/03/10 11:58:34;;;;;;;22.40;16.00;;;;;;;;;;4861846;29;20055;-81
2022/03/10 12:01:01;;;;;;;26.73;16.35;;;;;;;;;;4860548;29;20173;-82
2022/03/10 12:03:31;;;;;;;24.90;15.23;;;;;;;;;;4860949;29;20372;-82
2022/03/10 12:05:58;;;;;;;22.70;16.00;;;;;;;;;;4860775;29;20052;-80
2022/03/10 12:08:25;;;;;;;26.73;16.65;;;;;;;;;;4860843;29;20446;-81
2022/03/10 12:10:52;;;;;;;27.55;17.08;;;;;;;;;;4859151;29;20520;-82
2022/03/10 12:13:30;;;;;;;23.20;16.40;;;;;;;;;;4861736;29;20060;-83
2022/03/10 12:15:58;;;;;;;27.88;16.73;;;;;;;;;;4859390;29;20451;-82
2022/03/10 12:18:44;;;;;;;23.20;16.48;;;;;;;;;;4843547;29;20082;-80
2022/03/10 12:21:16;;;;;;;24.23;16.67;;;;;;;;;;4858182;29;20126;-80
2022/03/10 12:23:51;;;;;;;26.15;17.17;;;;;;;;;;4860762;29;20048;-79
2022/03/10 12:26:24;;;;;;;25.35;17.42;;;;;;;;;;4860318;29;20053;-82
2022/03/10 12:28:50;;;;;;;24.90;17.08;;;;;;;;;;4859039;29;20127;-80
2022/03/10 12:31:19;;;;;;;24.73;16.63;;;;;;;;;;4829954;29;20503;-80
2022/03/10 12:33:53;;;;;;;28.05;17.17;;;;;;;;;;4859746;29;20143;-80
2022/03/10 12:36:28;;;;;;;23.83;16.73;;;;;;;;;;4843558;29;20049;-78
2022/03/10 12:38:55;;;;;;;25.92;17.55;;;;;;;;;;4842696;29;20057;-79
2022/03/10 12:41:26;;;;;;;22.70;15.98;;;;;;;;;;4857835;29;20068;-81
2022/03/10 12:43:56;;;;;;;28.05;16.33;;;;;;;;;;4859333;29;20044;-83
2022/03/10 12:46:23;;;;;;;23.52;16.23;;;;;;;;;;4843145;29;20454;-82
2022/03/10 12:48:58;;;;;;;24.95;16.83;;;;;;;;;;4844311;29;20064;-80
2022/03/10 12:51:25;;;;;;;24.30;16.52;;;;;;;;;;4859342;29;20081;-79
2022/03/10 12:53:55;;;;;;;25.63;16.02;;;;;;;;;;4876230;29;20430;-79
2022/03/10 12:56:21;;;;;;;26.83;15.57;;;;;;;;;;4856782;29;20117;-81
2022/03/10 12:58:48;;;;;;;26.52;15.85;;;;;;;;;;4858648;29;20379;-76
2022/03/10 13:01:14;;;;;;;21.83;15.07;;;;;;;;;;4858830;29;20045;-77
2022/03/10 13:03:48;;;;;;;24.83;15.43;;;;;;;;;;4858727;29;20052;-77
2022/03/10 13:06:14;;;;;;;;;;;;;;;;;;4844432;29;20064;-76
2022/03/10 13:08:42;;;;;;;22.05;15.13;;;;;;;;;;4859545;29;20276;-78
2022/03/10 13:11:09;;;;;;;21.98;15.45;;;;;;;;;;4843964;29;20404;-78
2022/03/10 13:13:36;;;;;;;20.63;15.13;;;;;;;;;;4859711;29;20493;-77
2022/03/10 13:16:03;;;;;;;21.20;14.93;;;;;;;;;;4858227;29;20411;-78
2022/03/10 13:18:38;;;;;;;22.15;14.88;;;;;;;;;;4844493;29;20143;-78
2022/03/10 13:21:06;;;;;;;24.92;15.73;;;;;;;;;;4859766;29;20052;-78
2022/03/10 13:23:32;;;;;;;22.00;14.60;;;;;;;;;;4859260;29;20053;-78
2022/03/10 13:25:58;;;;;;;21.05;14.70;;;;;;;;;;4857390;29;20501;-79
2022/03/10 13:28:24;;;;;;;21.15;14.55;;;;;;;;;;4844473;29;20059;-78
2022/03/10 13:30:51;;;;;;;24.33;15.85;;;;;;;;;;4857157;29;20224;-78
2022/03/10 13:33:18;;;;;;;20.40;14.80;;;;;;;;;;4857578;29;20060;-79
2022/03/10 13:35:50;;;;;;;21.23;15.10;;;;;;;;;;4827746;29;20053;-79
2022/03/10 13:38:18;;;;;;;25.90;14.48;;;;;;;;;;4859484;29;20045;-80
2022/03/10 13:40:44;;;;;;;22.70;15.27;;;;;;;;;;4858041;29;20393;-78
2022/03/10 13:43:20;;;;;;;21.25;14.50;;;;;;;;;;4842466;29;20497;-79
2022/03/10 13:45:46;;;;;;;21.10;15.23;;;;;;;;;;4875207;29;20052;-79
2022/03/10 13:48:18;;;;;;;22.77;14.10;;;;;;;;;;4843037;29;20400;-80
2022/03/10 13:50:44;;;;;;;22.65;15.23;;;;;;;;;;4843742;29;20389;-78
2022/03/10 13:53:11;;;;;;;20.55;14.60;;;;;;;;;;4858305;29;20132;-77
2022/03/10 13:55:43;;;;;;;20.23;14.73;;;;;;;;;;4857940;29;20053;-80
2022/03/10 13:58:09;;;;;;;19.05;13.75;;;;;;;;;;4858556;29;20181;-83
2022/03/10 14:00:39;;;;;;;22.38;15.38;;;;;;;;;;4857606;29;20041;-80
2022/03/10 14:03:13;;;;;;;22.52;15.23;;;;;;;;;;4857765;29;20048;-79
2022/03/10 14:05:53;;;;;;;25.40;16.23;;;;;;;;;;4858483;29;20100;-80
2022/03/10 14:08:21;;;;;;;22.90;15.32;;;;;;;;;;4858475;29;20052;-80
2022/03/10 14:11:08;;;;;;;21.45;15.60;;;;;;;;;;4842927;29;20173;-77
2022/03/10 14:13:47;;;;;;;21.98;15.63;;;;;;;;;;4874115;29;20055;-77
2022/03/10 14:16:17;;;;;;;22.30;14.63;;;;;;;;;;4871992;29;20132;-77
2022/03/10 14:18:46;;;;;;;22.40;14.20;;;;;;;;;;4856455;29;20052;-83
2022/03/10 14:21:12;;;;;;;21.60;15.32;;;;;;;;;;4859005;29;20128;-83
2022/03/10 14:23:38;;;;;;;23.10;15.48;;;;;;;;;;4838454;29;20041;-76
2022/03/10 14:26:15;;;;;;;23.95;15.00;;;;;;;;;;4828091;29;20049;-76
2022/03/10 14:28:45;;;;;;;20.83;14.52;;;;;;;;;;4858609;29;20492;-76